Time;durP1;ratioP1;P1;durP2;ratioP2;P2;SDS_P1;SDS_P2;PMS_P1;PMS_P2;Temp;Humidity;BMP_temperature;BMP_pressure;BME280_temperature;BME280_humidity;BME280_pressure;Samples;Min_cycle;Max_cycle;Signal;HPM_P1;HPM_P2
2024/02/04 00:01:27;;;;;;;2.78;1.48;;;;;;;10.39;100.00;100620.56;5032653;28;20052;-43
2024/02/04 00:03:56;;;;;;;2.67;1.40;;;;;;;10.47;100.00;100641.50;5033129;28;20045;-46
2024/02/04 00:06:26;;;;;;;3.35;1.60;;;;;;;10.43;100.00;100634.63;5033202;28;20045;-44
2024/02/04 00:08:54;;;;;;;2.83;1.60;;;;;;;10.38;100.00;100628.66;5032539;28;20050;-44
2024/02/04 00:11:23;;;;;;;2.63;1.33;;;;;;;10.37;100.00;100633.13;5032401;28;20073;-46
2024/02/04 00:13:52;;;;;;;2.95;1.60;;;;;;;10.42;100.00;100631.09;5033361;28;20091;-46
2024/02/04 00:16:21;;;;;;;3.75;1.85;;;;;;;10.43;100.00;100638.13;5033116;28;20478;-45
2024/02/04 00:18:49;;;;;;;3.42;1.65;;;;;;;10.40;100.00;100637.41;5031827;28;20053;-45
2024/02/04 00:21:18;;;;;;;3.42;1.55;;;;;;;10.34;100.00;100635.09;5033060;28;20076;-46
2024/02/04 00:23:46;;;;;;;2.80;1.70;;;;;;;10.37;100.00;100622.44;5034415;28;20455;-45
2024/02/04 00:26:15;;;;;;;3.00;1.50;;;;;;;10.29;100.00;100620.19;5034318;28;20045;-46
2024/02/04 00:28:43;;;;;;;3.50;1.70;;;;;;;10.37;100.00;100622.44;5033374;28;20046;-46
2024/02/04 00:31:13;;;;;;;3.17;1.60;;;;;;;10.43;100.00;100632.81;5032026;28;20458;-44
2024/02/04 00:33:41;;;;;;;2.58;1.60;;;;;;;10.29;100.00;100654.84;5033621;28;20065;-44
2024/02/04 00:36:10;;;;;;;3.20;1.60;;;;;;;10.38;100.00;100650.84;5033781;28;20049;-46
2024/02/04 00:38:38;;;;;;;2.47;1.30;;;;;;;10.36;100.00;100646.53;5038543;28;20091;-45
2024/02/04 00:41:06;;;;;;;3.78;1.58;;;;;;;10.27;100.00;100654.06;5033177;28;20100;-44
2024/02/04 00:43:35;;;;;;;3.78;1.70;;;;;;;10.22;100.00;100645.44;5031292;28;20129;-46
2024/02/04 00:46:04;;;;;;;3.75;1.80;;;;;;;10.32;100.00;100646.69;5031266;28;20081;-46
2024/02/04 00:48:33;;;;;;;3.80;1.67;;;;;;;10.27;100.00;100651.41;5031266;28;20402;-43
2024/02/04 00:51:02;;;;;;;3.03;1.60;;;;;;;10.27;100.00;100646.06;5031337;28;20091;-45
2024/02/04 00:53:33;;;;;;;2.50;1.52;;;;;;;10.15;100.00;100649.38;5013202;28;20046;-43
2024/02/04 00:56:03;;;;;;;4.85;1.77;;;;;;;10.25;100.00;100653.31;5031366;28;20144;-43
2024/02/04 00:58:31;;;;;;;3.20;1.58;;;;;;;10.23;100.00;100652.53;5032164;28;20128;-45
2024/02/04 01:00:59;;;;;;;2.20;1.38;;;;;;;10.22;100.00;100650.78;5033261;28;20050;-44
2024/02/04 01:03:29;;;;;;;4.40;1.70;;;;;;;10.28;100.00;100653.13;5034677;28;20064;-45
2024/02/04 01:05:59;;;;;;;3.10;1.55;;;;;;;10.28;100.00;100645.13;5037399;28;20137;-47
2024/02/04 01:08:28;;;;;;;2.65;1.40;;;;;;;10.23;100.00;100647.19;5036993;28;20474;-48
2024/02/04 01:10:56;;;;;;;2.50;1.40;;;;;;;10.25;100.00;100636.44;5038093;28;20153;-44
2024/02/04 01:13:24;;;;;;;3.42;1.60;;;;;;;10.30;100.00;100637.91;5036667;28;20042;-44
2024/02/04 01:15:52;;;;;;;4.03;1.75;;;;;;;10.17;100.00;100625.28;5034371;28;20053;-44
2024/02/04 01:18:21;;;;;;;2.33;1.48;;;;;;;10.17;100.00;100618.16;5034602;28;20486;-44
2024/02/04 01:20:49;;;;;;;2.50;1.52;;;;;;;10.17;100.00;100619.94;5034483;28;20218;-45
2024/02/04 01:23:19;;;;;;;3.97;1.83;;;;;;;10.17;100.00;100620.81;5034346;28;20055;-46
2024/02/04 01:25:48;;;;;;;2.92;1.75;;;;;;;10.09;100.00;100623.00;5034900;28;20143;-45
2024/02/04 01:28:16;;;;;;;2.53;1.45;;;;;;;10.23;100.00;100623.19;5034423;28;20041;-47
2024/02/04 01:30:45;;;;;;;3.28;1.60;;;;;;;10.20;100.00;100612.66;5034504;28;20133;-46
2024/02/04 01:33:13;;;;;;;2.90;1.55;;;;;;;10.21;100.00;100611.69;5034417;28;20558;-45
2024/02/04 01:35:42;;;;;;;3.15;1.55;;;;;;;10.26;100.00;100609.69;5034286;28;20061;-45
2024/02/04 01:38:10;;;;;;;2.83;1.30;;;;;;;10.32;100.00;100590.69;5034216;28;20053;-45
2024/02/04 01:40:40;;;;;;;3.42;1.50;;;;;;;10.32;100.00;100588.03;5034320;28;20132;-45
2024/02/04 01:43:08;;;;;;;3.42;1.63;;;;;;;10.14;100.00;100575.66;5035281;28;20518;-45
2024/02/04 01:45:37;;;;;;;2.05;1.30;;;;;;;10.18;100.00;100585.22;5035705;28;20052;-45
2024/02/04 01:48:06;;;;;;;2.85;1.75;;;;;;;10.27;100.00;100589.22;5034889;28;20050;-46
2024/02/04 01:50:35;;;;;;;3.17;1.75;;;;;;;10.26;100.00;100591.03;5034199;28;20081;-44
2024/02/04 01:53:04;;;;;;;2.97;1.63;;;;;;;10.22;100.00;100576.13;5034793;28;20405;-45
2024/02/04 01:55:33;;;;;;;3.40;1.60;;;;;;;10.25;100.00;100578.66;5034391;28;20049;-44
2024/02/04 01:58:03;;;;;;;3.05;1.65;;;;;;;10.23;100.00;100584.97;5034591;28;20490;-44
2024/02/04 02:00:32;;;;;;;2.10;1.60;;;;;;;10.09;100.00;100591.03;5033782;28;20500;-46
2024/02/04 02:03:01;;;;;;;2.63;1.60;;;;;;;10.12;100.00;100596.19;5033764;28;20045;-44
2024/02/04 02:05:30;;;;;;;4.50;1.70;;;;;;;10.24;100.00;100584.06;5033872;28;20092;-45
2024/02/04 02:07:58;;;;;;;2.10;1.35;;;;;;;10.18;100.00;100590.53;5033985;28;20053;-44
2024/02/04 02:10:27;;;;;;;3.17;1.63;;;;;;;10.22;100.00;100578.78;5034021;28;20072;-45
2024/02/04 02:13:00;;;;;;;3.45;1.80;;;;;;;10.23;100.00;100572.53;5033673;28;20054;-44
2024/02/04 02:15:36;;;;;;;4.50;1.60;;;;;;;10.18;100.00;100573.69;5034066;28;20053;-44
2024/02/04 02:18:11;;;;;;;4.50;1.80;;;;;;;10.22;100.00;100581.47;5033539;28;20045;-45
2024/02/04 02:20:53;;;;;;;3.03;1.80;;;;;;;10.12;100.00;100585.53;5033728;28;20045;-49
2024/02/04 02:23:23;;;;;;;4.00;1.77;;;;;;;10.14;100.00;100569.47;5033413;28;20046;-45
2024/02/04 02:25:54;;;;;;;2.55;1.60;;;;;;;10.07;100.00;100560.06;5033988;28;20045;-45
2024/02/04 02:28:22;;;;;;;2.22;1.58;;;;;;;9.95;100.00;100566.94;5033250;28;20136;-44
2024/02/04 02:30:51;;;;;;;3.45;1.70;;;;;;;9.90;100.00;100568.97;5033541;28;20041;-45
2024/02/04 02:33:19;;;;;;;3.03;1.88;;;;;;;9.90;100.00;100569.81;5033349;28;20844;-45
2024/02/04 02:35:54;;;;;;;3.40;1.90;;;;;;;9.93;100.00;100574.97;5033122;28;20057;-46
2024/02/04 02:38:27;;;;;;;4.53;1.75;;;;;;;9.89;100.00;100565.44;5033085;28;20050;-46
2024/02/04 02:41:00;;;;;;;2.97;1.80;;;;;;;9.88;100.00;100576.16;5033285;28;20042;-51
2024/02/04 02:43:30;;;;;;;2.58;1.58;;;;;;;9.81;100.00;100569.44;5033080;28;20061;-43
2024/02/04 02:45:58;;;;;;;3.65;1.50;;;;;;;9.84;100.00;100563.94;5033309;28;20046;-44
2024/02/04 02:48:27;;;;;;;3.42;1.77;;;;;;;9.90;100.00;100574.28;5033152;28;20072;-47
2024/02/04 02:50:56;;;;;;;3.83;1.92;;;;;;;9.82;100.00;100568.50;5033287;28;20059;-46
2024/02/04 02:53:24;;;;;;;2.60;1.70;;;;;;;9.80;100.00;100562.38;5033501;28;20053;-45
2024/02/04 02:55:52;;;;;;;2.95;1.70;;;;;;;9.83;100.00;100556.88;5034773;28;20140;-45
2024/02/04 02:58:22;;;;;;;4.53;2.20;;;;;;;9.77;100.00;100554.56;5035799;28;20058;-46
2024/02/04 03:00:50;;;;;;;3.45;1.83;;;;;;;9.61;100.00;100555.34;5033477;28;20515;-45
2024/02/04 03:03:19;;;;;;;3.75;2.17;;;;;;;9.69;100.00;100566.47;5032695;28;20410;-45
2024/02/04 03:05:47;;;;;;;3.92;1.90;;;;;;;9.75;100.00;100563.50;5032633;28;20414;-46
2024/02/04 03:08:17;;;;;;;4.68;2.03;;;;;;;9.69;100.00;100561.13;5015132;28;20072;-46
2024/02/04 03:10:46;;;;;;;3.55;2.00;;;;;;;9.78;100.00;100554.47;5032407;28;20042;-44
2024/02/04 03:13:14;;;;;;;3.97;2.20;;;;;;;9.69;100.00;100561.13;5032608;28;20433;-44
2024/02/04 03:15:44;;;;;;;4.45;2.10;;;;;;;9.64;100.00;100547.19;5032391;28;20045;-43
2024/02/04 03:18:11;;;;;;;3.25;2.00;;;;;;;9.53;100.00;100544.22;5032320;28;20065;-43
2024/02/04 03:20:39;;;;;;;4.38;2.35;;;;;;;9.51;100.00;100551.44;5032236;28;20138;-43
2024/02/04 03:23:08;;;;;;;3.80;2.30;;;;;;;9.50;100.00;100565.69;5032320;28;20093;-45
2024/02/04 03:25:36;;;;;;;3.80;2.30;;;;;;;9.50;100.00;100575.47;5032199;28;20608;-44
2024/02/04 03:28:05;;;;;;;4.32;2.40;;;;;;;9.57;100.00;100579.56;5031765;28;20144;-46
2024/02/04 03:30:33;;;;;;;3.63;2.25;;;;;;;9.66;100.00;100581.75;5032416;28;20061;-45
2024/02/04 03:33:03;;;;;;;4.15;2.72;;;;;;;9.61;100.00;100567.78;5032042;28;20102;-45
2024/02/04 03:35:36;;;;;;;4.82;2.40;;;;;;;9.62;100.00;100570.38;5032295;28;20131;-43
2024/02/04 03:38:04;;;;;;;3.70;2.30;;;;;;;9.51;100.00;100571.88;5032424;28;20049;-45
2024/02/04 03:40:33;;;;;;;4.43;2.85;;;;;;;9.57;100.00;100576.91;5032658;28;20053;-45
2024/02/04 03:43:01;;;;;;;5.43;2.53;;;;;;;9.59;100.00;100569.69;5031635;28;20522;-44
2024/02/04 03:45:30;;;;;;;4.28;2.70;;;;;;;9.59;100.00;100573.19;5031728;28;20386;-44
2024/02/04 03:47:58;;;;;;;4.93;2.67;;;;;;;9.47;100.00;100576.50;5031623;28;20089;-45
2024/02/04 03:50:28;;;;;;;4.22;2.83;;;;;;;9.57;100.00;100584.88;5031461;28;20458;-45
2024/02/04 03:52:56;;;;;;;5.65;2.58;;;;;;;9.63;100.00;100588.06;5031785;28;20094;-44
2024/02/04 03:55:27;;;;;;;4.72;3.20;;;;;;;9.58;100.00;100587.47;5031521;28;20127;-47
2024/02/04 03:57:57;;;;;;;5.07;2.97;;;;;;;9.50;100.00;100580.81;5031334;28;20050;-45
2024/02/04 04:00:25;;;;;;;4.65;2.92;;;;;;;9.65;100.00;100578.22;5031384;28;20077;-45
2024/02/04 04:02:54;;;;;;;5.43;2.92;;;;;;;9.72;100.00;100587.59;5031518;28;20124;-43
2024/02/04 04:05:22;;;;;;;4.70;2.88;;;;;;;9.71;100.00;100591.22;5031586;28;20057;-44
2024/02/04 04:07:52;;;;;;;5.10;3.00;;;;;;;9.70;100.00;100589.50;5031339;28;20054;-45
2024/02/04 04:10:20;;;;;;;4.28;2.67;;;;;;;9.79;100.00;100585.50;5031478;28;20418;-45
2024/02/04 04:12:48;;;;;;;4.05;2.63;;;;;;;9.76;100.00;100583.00;5031203;28;20056;-43
2024/02/04 04:15:17;;;;;;;4.40;2.80;;;;;;;9.71;100.00;100590.34;5031495;28;20045;-45
2024/02/04 04:17:46;;;;;;;3.97;2.58;;;;;;;9.78;100.00;100593.56;5031226;28;20099;-44
2024/02/04 04:20:14;;;;;;;5.68;2.58;;;;;;;9.87;100.00;100585.09;5031741;28;20119;-46
2024/02/04 04:22:42;;;;;;;7.22;2.60;;;;;;;9.88;100.00;100577.03;5031813;28;20045;-44
2024/02/04 04:25:13;;;;;;;7.35;2.60;;;;;;;9.94;100.00;100583.81;5032196;28;20053;-46
2024/02/04 04:27:41;;;;;;;4.35;2.38;;;;;;;9.96;100.00;100584.63;5032368;28;20442;-45
2024/02/04 04:30:10;;;;;;;4.63;2.47;;;;;;;9.99;100.00;100580.00;5031350;28;20115;-46
2024/02/04 04:32:39;;;;;;;4.10;2.45;;;;;;;9.96;100.00;100573.97;5031471;28;20081;-46
2024/02/04 04:35:08;;;;;;;3.97;2.55;;;;;;;9.97;100.00;100581.03;5031112;28;20041;-46
2024/02/04 04:37:36;;;;;;;3.75;2.25;;;;;;;10.02;100.00;100573.63;5031705;28;20045;-44
2024/02/04 04:40:05;;;;;;;3.90;2.40;;;;;;;10.04;100.00;100577.97;5035094;28;20107;-44
2024/02/04 04:42:35;;;;;;;5.13;2.80;;;;;;;10.04;100.00;100587.75;5035209;28;20111;-44
2024/02/04 04:45:05;;;;;;;3.95;2.63;;;;;;;9.99;100.00;100592.47;5035101;28;20049;-46
2024/02/04 04:47:33;;;;;;;5.32;3.20;;;;;;;9.92;100.00;100585.72;5035132;28;20083;-44
2024/02/04 04:50:02;;;;;;;4.07;2.55;;;;;;;10.01;100.00;100579.91;5035171;28;20140;-45
2024/02/04 04:52:30;;;;;;;4.15;2.65;;;;;;;9.96;100.00;100565.97;5035192;28;20046;-47
2024/02/04 04:54:58;;;;;;;6.32;3.00;;;;;;;10.01;100.00;100574.56;5035230;28;20049;-44
2024/02/04 04:57:27;;;;;;;5.07;3.00;;;;;;;9.87;100.00;100575.31;5035019;28;20540;-44
2024/02/04 04:59:58;;;;;;;4.47;2.80;;;;;;;9.94;100.00;100565.16;5035040;28;20060;-44
2024/02/04 05:02:27;;;;;;;4.55;2.88;;;;;;;9.99;100.00;100557.81;5034886;28;20086;-45
2024/02/04 05:04:55;;;;;;;6.40;2.72;;;;;;;10.09;100.00;100553.72;5035103;28;20129;-43
2024/02/04 05:07:23;;;;;;;5.30;3.00;;;;;;;10.07;100.00;100557.41;5034942;28;20136;-44
2024/02/04 05:09:52;;;;;;;4.65;3.00;;;;;;;10.15;100.00;100561.41;5034897;28;20045;-45
2024/02/04 05:12:20;;;;;;;5.57;2.90;;;;;;;10.09;100.00;100551.06;5035095;28;20561;-44
2024/02/04 05:14:49;;;;;;;6.38;2.75;;;;;;;10.02;100.00;100569.16;5035375;28;20056;-43
2024/02/04 05:17:18;;;;;;;4.70;2.80;;;;;;;10.04;100.00;100567.31;5040504;28;20235;-44
2024/02/04 05:19:47;;;;;;;4.60;2.85;;;;;;;10.13;100.00;100581.06;5038272;28;20041;-44
2024/02/04 05:22:15;;;;;;;4.78;2.72;;;;;;;10.08;100.00;100588.44;5034640;28;20068;-44
2024/02/04 05:24:43;;;;;;;5.70;3.33;;;;;;;10.08;100.00;100583.97;5034525;28;20042;-43
2024/02/04 05:27:12;;;;;;;4.60;2.63;;;;;;;10.01;100.00;100577.25;5034427;28;20053;-44
2024/02/04 05:29:40;;;;;;;5.32;2.75;;;;;;;10.01;100.00;100580.75;5034497;28;20084;-45
2024/02/04 05:32:08;;;;;;;5.70;2.92;;;;;;;10.02;100.00;100573.63;5034375;28;20064;-44
2024/02/04 05:34:39;;;;;;;4.00;2.65;;;;;;;10.01;100.00;100593.22;5034601;28;20081;-44
2024/02/04 05:37:07;;;;;;;4.53;2.90;;;;;;;9.88;100.00;100582.34;5034401;28;20045;-47
2024/02/04 05:39:35;;;;;;;4.90;3.05;;;;;;;9.86;100.00;100581.59;5034280;28;20045;-45
2024/02/04 05:42:04;;;;;;;4.65;2.85;;;;;;;9.97;100.00;100576.56;5034158;28;20041;-44
2024/02/04 05:44:33;;;;;;;5.78;3.10;;;;;;;10.06;100.00;100553.03;5034062;28;20518;-43
2024/02/04 05:47:01;;;;;;;4.55;2.63;;;;;;;9.99;100.00;100557.81;5034005;28;20074;-44
2024/02/04 05:49:30;;;;;;;5.72;2.67;;;;;;;9.95;100.00;100546.47;5033122;28;20182;-44
2024/02/04 05:51:59;;;;;;;4.72;2.20;;;;;;;9.91;100.00;100554.69;5034107;28;20054;-46
2024/02/04 05:54:27;;;;;;;4.72;2.60;;;;;;;9.76;100.00;100551.03;5033995;28;20049;-46
2024/02/04 05:56:56;;;;;;;5.63;3.22;;;;;;;9.67;100.00;100565.69;5033936;28;20458;-44
2024/02/04 05:59:24;;;;;;;6.10;2.67;;;;;;;9.74;100.00;100568.88;5033809;28;20049;-45
2024/02/04 06:01:52;;;;;;;5.15;2.78;;;;;;;9.62;100.00;100564.19;5034043;28;20128;-46
2024/02/04 06:04:20;;;;;;;4.57;2.80;;;;;;;9.64;100.00;100568.50;5033833;28;20053;-44
2024/02/04 06:06:49;;;;;;;4.90;2.95;;;;;;;9.67;100.00;100556.84;5033611;28;20051;-44
2024/02/04 06:09:19;;;;;;;4.50;2.72;;;;;;;9.69;100.00;100566.47;5033727;28;20050;-45
2024/02/04 06:11:47;;;;;;;5.85;3.13;;;;;;;9.66;100.00;100569.28;5033502;28;20045;-44
2024/02/04 06:14:14;;;;;;;5.32;2.67;;;;;;;9.65;100.00;100572.91;5033471;28;20049;-44
2024/02/04 06:16:43;;;;;;;3.17;1.90;;;;;;;9.54;100.00;100591.22;5033445;28;20522;-44
2024/02/04 06:19:12;;;;;;;4.32;2.28;;;;;;;9.66;100.00;100584.41;5033608;28;20061;-44
2024/02/04 06:21:41;;;;;;;4.32;2.28;;;;;;;9.64;100.00;100589.78;5033504;28;20049;-44
2024/02/04 06:24:10;;;;;;;3.28;2.28;;;;;;;9.67;100.00;100584.34;5033421;28;20045;-45
2024/02/04 06:26:40;;;;;;;3.88;2.10;;;;;;;9.64;100.00;100580.94;5033259;28;20402;-45
2024/02/04 06:29:09;;;;;;;3.40;2.22;;;;;;;9.55;100.00;100579.59;5033485;28;20045;-45
2024/02/04 06:31:37;;;;;;;3.85;2.15;;;;;;;9.60;100.00;100587.38;5033326;28;20058;-43
2024/02/04 06:34:05;;;;;;;3.50;1.92;;;;;;;9.71;100.00;100587.69;5033198;28;20057;-45
2024/02/04 06:36:34;;;;;;;3.08;2.10;;;;;;;9.70;100.00;100578.84;5033252;28;20041;-44
2024/02/04 06:39:02;;;;;;;3.90;2.08;;;;;;;9.77;100.00;100578.53;5032932;28;20084;-45
2024/02/04 06:41:32;;;;;;;4.22;2.10;;;;;;;9.77;100.00;100589.19;5033306;28;20045;-45
2024/02/04 06:44:02;;;;;;;3.58;2.13;;;;;;;9.86;100.00;100599.38;5032911;28;20049;-44
2024/02/04 06:46:31;;;;;;;3.10;2.00;;;;;;;9.88;100.00;100592.16;5033193;28;20049;-43
2024/02/04 06:48:59;;;;;;;3.40;2.10;;;;;;;9.93;100.00;100606.09;5033122;28;20061;-46
2024/02/04 06:51:28;;;;;;;3.17;1.90;;;;;;;10.01;100.00;100607.41;5033010;28;20052;-47
2024/02/04 06:53:56;;;;;;;3.05;2.00;;;;;;;10.03;100.00;100618.00;5032865;28;20045;-48
2024/02/04 06:56:25;;;;;;;2.53;1.73;;;;;;;10.09;100.00;100612.34;5032999;28;20100;-45
2024/02/04 06:58:53;;;;;;;4.00;2.20;;;;;;;10.15;100.00;100628.03;5032525;28;20053;-45
2024/02/04 07:01:23;;;;;;;3.47;2.15;;;;;;;10.16;100.00;100629.75;5032600;28;20488;-45
2024/02/04 07:03:52;;;;;;;3.17;2.10;;;;;;;10.29;100.00;100625.53;5032486;28;20495;-44
2024/02/04 07:06:20;;;;;;;3.63;2.10;;;;;;;10.41;100.00;100620.47;5032682;28;20384;-44
2024/02/04 07:08:49;;;;;;;4.07;1.98;;;;;;;10.27;100.00;100615.88;5032581;28;20045;-43
2024/02/04 07:11:18;;;;;;;3.67;2.08;;;;;;;10.26;100.00;100620.38;5032558;28;20088;-46
2024/02/04 07:13:46;;;;;;;2.83;1.88;;;;;;;10.26;100.00;100615.03;5032481;28;20046;-44
2024/02/04 07:16:14;;;;;;;3.30;1.83;;;;;;;10.25;100.00;100623.13;5032555;28;20069;-43
2024/02/04 07:18:44;;;;;;;2.72;1.90;;;;;;;10.18;100.00;100627.00;5032038;28;20518;-44
2024/02/04 07:21:12;;;;;;;3.05;1.90;;;;;;;10.23;100.00;100630.31;5032342;28;20136;-42
2024/02/04 07:23:40;;;;;;;3.25;2.03;;;;;;;10.23;100.00;100617.88;5032425;28;20045;-44
2024/02/04 07:26:09;;;;;;;6.55;2.22;;;;;;;10.44;100.00;100610.53;5031956;28;20552;-45
2024/02/04 07:28:38;;;;;;;3.13;1.85;;;;;;;10.46;100.00;100605.09;5031946;28;20045;-44
2024/02/04 07:31:06;;;;;;;3.60;2.03;;;;;;;10.62;100.00;100616.66;5032102;28;20052;-44
2024/02/04 07:33:34;;;;;;;3.60;1.80;;;;;;;10.59;100.00;100619.47;5031968;28;20057;-43
2024/02/04 07:36:04;;;;;;;2.78;1.85;;;;;;;10.92;100.00;100610.59;5032545;28;20141;-45
2024/02/04 07:38:32;;;;;;;3.30;1.90;;;;;;;10.94;100.00;100620.22;5032117;28;20136;-45
2024/02/04 07:41:01;;;;;;;3.65;2.08;;;;;;;10.84;100.00;100619.88;5031941;28;20099;-45
2024/02/04 07:43:29;;;;;;;3.63;1.90;;;;;;;10.90;100.00;100602.63;5031761;28;20064;-46
2024/02/04 07:45:57;;;;;;;3.60;1.70;;;;;;;10.95;100.00;100608.59;5031693;28;20487;-45
2024/02/04 07:48:29;;;;;;;5.57;1.83;;;;;;;10.97;100.00;100619.19;5031892;28;20082;-43
2024/02/04 07:50:57;;;;;;;2.88;1.73;;;;;;;11.03;100.00;100621.53;5031951;28;20069;-47
2024/02/04 07:53:27;;;;;;;3.00;1.77;;;;;;;11.08;100.00;100627.44;5031993;28;20054;-44
2024/02/04 07:55:55;;;;;;;3.80;1.75;;;;;;;10.98;100.00;100631.56;5031918;28;20049;-44
2024/02/04 07:58:24;;;;;;;3.13;1.65;;;;;;;11.06;100.00;100624.88;5033007;28;20427;-44
2024/02/04 08:00:52;;;;;;;2.42;1.40;;;;;;;11.01;100.00;100616.28;5034610;28;20129;-47
2024/02/04 08:03:20;;;;;;;3.65;1.80;;;;;;;10.95;100.00;100619.28;5032247;28;20072;-45
2024/02/04 08:05:48;;;;;;;3.65;1.75;;;;;;;10.98;100.00;100612.91;5031564;28;20041;-45
2024/02/04 08:08:17;;;;;;;2.63;1.70;;;;;;;11.04;100.00;100617.91;5034569;28;20041;-45
2024/02/04 08:10:49;;;;;;;6.07;2.35;;;;;;;10.97;100.00;100616.50;5035656;28;20443;-50
2024/02/04 08:13:18;;;;;;;5.20;2.00;;;;;;;10.99;100.00;100609.28;5038772;28;20095;-46
2024/02/04 08:15:46;;;;;;;4.60;1.73;;;;;;;11.01;100.00;100612.75;5037111;28;20453;-46
2024/02/04 08:18:14;;;;;;;2.58;1.50;;;;;;;11.14;100.00;100608.41;5036544;28;20033;-45
2024/02/04 08:20:42;;;;;;;3.45;1.77;;;;;;;11.26;100.00;100607.72;5038285;28;20198;-44
2024/02/04 08:23:11;;;;;;;3.20;1.60;;;;;;;11.14;100.00;100611.09;5033691;28;20073;-45
2024/02/04 08:25:39;;;;;;;3.90;1.70;;;;;;;11.18;100.00;100593.94;5032056;28;20084;-44
2024/02/04 08:28:09;;;;;;;3.00;1.60;;;;;;;11.12;100.00;100621.00;5032330;28;20084;-44
2024/02/04 08:30:37;;;;;;;2.65;1.60;;;;;;;11.15;100.00;100629.69;5032445;28;20079;-45
2024/02/04 08:33:06;;;;;;;3.30;1.70;;;;;;;11.20;100.00;100634.78;5031628;28;20140;-43
2024/02/04 08:35:34;;;;;;;4.03;1.88;;;;;;;11.22;100.00;100622.19;5031605;28;20077;-46
2024/02/04 08:38:03;;;;;;;3.60;1.77;;;;;;;11.26;100.00;100622.88;5031329;28;20108;-45
2024/02/04 08:40:31;;;;;;;2.75;1.80;;;;;;;11.23;100.00;100617.72;5031042;28;20045;-44
2024/02/04 08:42:59;;;;;;;2.97;1.65;;;;;;;11.38;100.00;100632.84;5030981;28;20060;-44
2024/02/04 08:45:29;;;;;;;3.25;1.80;;;;;;;11.58;100.00;100655.75;5029675;28;20057;-47
2024/02/04 08:47:57;;;;;;;3.53;1.77;;;;;;;11.42;100.00;100632.59;5031017;28;20539;-44
2024/02/04 08:50:25;;;;;;;4.68;1.80;;;;;;;11.67;100.00;100626.66;5030900;28;20462;-45
2024/02/04 08:52:54;;;;;;;4.63;1.70;;;;;;;11.90;100.00;100606.66;5030793;28;20050;-43
2024/02/04 08:55:24;;;;;;;4.72;1.90;;;;;;;12.09;100.00;100610.88;5031085;28;20103;-44
2024/02/04 08:57:53;;;;;;;3.10;1.60;;;;;;;12.18;100.00;100629.91;5030820;28;20053;-45
2024/02/04 09:00:22;;;;;;;1.65;1.20;;;;;;;12.09;100.00;100624.25;5030723;28;20053;-44
2024/02/04 09:02:52;;;;;;;2.63;1.58;;;;;;;11.91;100.00;100615.53;5030805;28;20133;-45
2024/02/04 09:05:20;;;;;;;3.53;1.60;;;;;;;11.94;100.00;100605.50;5030875;28;20073;-43
2024/02/04 09:07:48;;;;;;;7.45;2.30;;;;;;;11.97;100.00;100605.34;5031139;28;20041;-43
2024/02/04 09:10:17;;;;;;;3.40;1.65;;;;;;;12.00;100.00;100597.13;5030917;28;20088;-42
2024/02/04 09:12:45;;;;;;;3.97;1.90;;;;;;;12.15;100.00;100591.78;5030790;28;20140;-42
2024/02/04 09:15:14;;;;;;;3.58;1.80;;;;;;;12.10;100.00;100584.06;5030793;28;20133;-44
2024/02/04 09:17:42;;;;;;;3.75;1.80;;;;;;;12.26;100.00;100574.16;5030440;28;20056;-45
2024/02/04 09:20:12;;;;;;;3.10;1.60;;;;;;;12.28;100.00;100571.38;5030704;28;20054;-43
2024/02/04 09:22:41;;;;;;;4.15;1.70;;;;;;;12.38;100.00;100571.66;5030881;28;20057;-44
2024/02/04 09:25:09;;;;;;;2.13;1.30;;;;;;;12.45;100.00;100578.31;5031020;28;20046;-45
2024/02/04 09:27:38;;;;;;;2.30;1.30;;;;;;;12.22;100.00;100582.44;5034630;28;20172;-48
2024/02/04 09:30:07;;;;;;;2.53;1.45;;;;;;;12.19;100.00;100582.63;5034334;28;20045;-45
2024/02/04 09:32:36;;;;;;;3.00;1.25;;;;;;;12.17;100.00;100593.44;5034305;28;20048;-45
2024/02/04 09:35:05;;;;;;;2.40;1.40;;;;;;;12.37;100.00;100594.00;5034488;28;20461;-45
2024/02/04 09:37:35;;;;;;;3.50;1.60;;;;;;;12.30;100.00;100604.22;5034118;28;20053;-45
2024/02/04 09:40:05;;;;;;;3.20;1.60;;;;;;;12.21;100.00;100602.13;5034184;28;20057;-46
2024/02/04 09:42:33;;;;;;;3.58;1.30;;;;;;;12.19;100.00;100577.28;5034120;28;20045;-44
2024/02/04 09:45:02;;;;;;;2.47;1.48;;;;;;;12.07;100.00;100589.59;5034088;28;20050;-45
2024/02/04 09:47:33;;;;;;;23.83;11.52;;;;;;;12.28;100.00;100582.06;5032762;28;20483;-42
2024/02/04 09:50:03;;;;;;;6.63;2.42;;;;;;;12.35;100.00;100594.09;5037082;28;20068;-44
2024/02/04 09:52:38;;;;;;;3.28;1.42;;;;;;;12.28;100.00;100593.63;5032714;28;20187;-44
2024/02/04 09:55:09;;;;;;;3.15;1.58;;;;;;;12.44;100.00;100589.97;5033030;28;20574;-44
2024/02/04 09:57:38;;;;;;;2.50;1.38;;;;;;;12.51;100.00;100594.84;5040053;28;20049;-45
2024/02/04 10:00:08;;;;;;;3.95;1.52;;;;;;;12.33;100.00;100579.94;5031624;28;20445;-42
2024/02/04 10:02:37;;;;;;;4.13;1.50;;;;;;;12.30;100.00;100596.19;5032990;28;20052;-42
2024/02/04 10:05:06;;;;;;;3.22;1.48;;;;;;;12.45;100.00;100586.34;5032078;28;20072;-42
2024/02/04 10:07:38;;;;;;;2.55;1.35;;;;;;;12.24;100.00;100591.22;5032760;28;20049;-42
2024/02/04 10:10:08;;;;;;;4.32;1.67;;;;;;;12.17;100.00;100580.06;5031606;28;20509;-42
2024/02/04 10:12:38;;;;;;;3.22;1.27;;;;;;;12.24;100.00;100564.47;5032111;28;20423;-42
2024/02/04 10:15:08;;;;;;;3.60;1.90;;;;;;;12.41;100.00;100574.97;5032252;28;20056;-44
2024/02/04 10:17:36;;;;;;;7.20;2.13;;;;;;;12.37;100.00;100570.78;5031548;28;20041;-42
2024/02/04 10:20:06;;;;;;;13.60;6.47;;;;;;;12.57;100.00;100572.22;5030932;28;20049;-43
2024/02/04 10:22:36;;;;;;;3.75;2.00;;;;;;;12.65;100.00;100563.72;5031484;28;20442;-44
2024/02/04 10:25:08;;;;;;;2.63;1.33;;;;;;;12.47;100.00;100563.91;5031748;28;20137;-43
2024/02/04 10:27:37;;;;;;;2.38;1.30;;;;;;;12.52;100.00;100568.97;5032102;28;20363;-43
2024/02/04 10:30:06;;;;;;;2.95;1.60;;;;;;;12.52;100.00;100556.44;5030362;28;20056;-43
2024/02/04 10:32:35;;;;;;;3.13;1.30;;;;;;;12.73;100.00;100564.03;5031843;28;20072;-43
2024/02/04 10:35:05;;;;;;;3.35;1.27;;;;;;;12.66;100.00;100550.22;5031630;28;20049;-43
2024/02/04 10:37:33;;;;;;;4.47;1.55;;;;;;;12.65;100.00;100553.84;5032394;28;20050;-44
2024/02/04 10:40:07;;;;;;;2.15;1.40;;;;;;;12.47;100.00;100529.13;5030908;28;20049;-42
2024/02/04 10:42:40;;;;;;;2.78;1.38;;;;;;;12.45;100.00;100528.38;5032183;28;20046;-43
2024/02/04 10:45:14;;;;;;;2.78;1.42;;;;;;;12.48;100.00;100533.53;5031445;28;20052;-43
2024/02/04 10:47:56;;;;;;;2.47;1.38;;;;;;;12.47;100.00;100533.63;5031178;28;20049;-44
2024/02/04 10:50:26;;;;;;;3.22;1.30;;;;;;;12.45;100.00;100548.88;5026969;28;20049;-45
2024/02/04 10:52:59;;;;;;;2.25;1.40;;;;;;;12.50;100.00;100538.78;5031876;28;20049;-45
2024/02/04 10:55:31;;;;;;;2.47;1.20;;;;;;;12.49;100.00;100524.53;5031457;28;20041;-46
2024/02/04 10:58:01;;;;;;;2.30;1.33;;;;;;;12.48;100.00;100509.44;5030702;28;20287;-45
2024/02/04 11:00:29;;;;;;;3.45;1.35;;;;;;;12.63;100.00;100512.94;5031833;28;20045;-44
2024/02/04 11:03:03;;;;;;;1.38;1.08;;;;;;;12.57;100.00;100495.47;5031957;28;20386;-44
2024/02/04 11:05:35;;;;;;;3.65;1.40;;;;;;;12.71;100.00;100507.09;5030753;28;20099;-44
2024/02/04 11:08:06;;;;;;;3.28;1.25;;;;;;;12.81;100.00;100503.72;5030806;28;20081;-43
2024/02/04 11:10:38;;;;;;;2.60;1.15;;;;;;;12.74;100.00;100510.44;5030818;28;20056;-45
2024/02/04 11:13:11;;;;;;;2.50;1.35;;;;;;;12.82;100.00;100502.75;5031467;28;20053;-45
2024/02/04 11:15:44;;;;;;;2.88;1.30;;;;;;;12.83;100.00;100506.28;5030694;28;20056;-42
2024/02/04 11:18:52;;;;;;;3.85;1.20;;;;;;;12.79;100.00;100502.97;5029772;28;20064;-44
2024/02/04 11:21:42;;;;;;;2.33;1.30;;;;;;;12.74;100.00;100506.88;5021115;28;20102;-45
2024/02/04 11:24:28;;;;;;;2.25;1.27;;;;;;;12.84;100.00;100508.03;5030613;28;20049;-44
2024/02/04 11:26:58;;;;;;;2.13;0.98;;;;;;;12.79;100.00;100507.44;5031015;28;20045;-44
2024/02/04 11:29:27;;;;;;;4.30;1.50;;;;;;;12.79;100.00;100511.00;5028526;28;20052;-43